Tuesday, January 16, 2018, 11:52 AM GMT
Back to Local

CWNH, Riviere Du Loup, Que.

Location: , , Canada Lat: 47.8
Local Time: 11:52 AM GMT (11:52 GMT) Lon: -69.55
Time Zone: GMT Elev: 485 ft

Show me the last for .
Show Coded

Time T Td Feel RH Dir Speed Gust Alt SLP Vis Weather Sky Remarks
2018-01-16 11:00 -1 -7 - 75 - Calm - - 30.58 0 None
2018-01-16 10:00 -6 -10 - 80 - Calm - - 30.59 0 None
2018-01-16 09:00 -3 -7 - 82 - Calm - - 30.60 0 None
2018-01-16 08:00 -4 -8 - 81 - Calm - - 30.62 0 None
2018-01-16 07:00 -8 -13 - 79 - Calm - - 30.66 0 None
2018-01-16 06:00 -11 -16 - 78 - Calm - - 30.67 0 None
2018-01-16 05:00 -11 -16 - 78 - Calm - - 30.70 0 None
2018-01-16 04:00 -8 -13 - 79 - Calm - - 30.72 0 None
2018-01-16 03:00 -8 -12 - 79 - Calm - - 30.75 0 None
2018-01-16 02:00 -5 -9 - 80 - Calm - - 30.77 0 None
2018-01-16 01:00 -4 -8 - 83 - Calm - - 30.81 0 None
2018-01-16 00:00 0 -6 - 76 40° 1 - - 30.82 0 None
2018-01-15 23:00 -1 -5 - 84 - Calm - - 30.85 0 None
2018-01-15 22:00 -1 -4 - 84 - Calm - - 30.84 0 None
2018-01-15 21:00 1 -3 - 82 40° 1 - - 30.84 0 None
2018-01-15 20:00 2 -3 - 80 10° 2 - - 30.86 0 None
2018-01-15 19:00 2 -3 - 78 20° 1 - - 30.89 0 None
2018-01-15 18:00 1 -3 - 81 - Calm - - 30.91 0 None
2018-01-15 17:00 0 -5 - 81 50° 1 - - 30.91 0 None
2018-01-15 16:00 -3 -7 - 81 - Calm - - 30.94 0 None
2018-01-15 15:00 -6 -10 - 80 - Calm - - 30.98 0 None
2018-01-15 14:00 -8 -13 - 79 - Calm - - 30.98 0 1-hr Precip Total: 0.01"
2018-01-15 13:00 -12 -17 - 77 - Calm - - 30.99 0 None
2018-01-15 12:00 -12 -16 - 78 - Calm - - 30.95 0 None

Support USWX by starting your Amazon purchase here.